Time;durP1;ratioP1;P1;durP2;ratioP2;P2;SDS_P1;SDS_P2;PMS_P1;PMS_P2;Temp;Humidity;BMP_temperature;BMP_pressure;BME280_temperature;BME280_humidity;BME280_pressure;Samples;Min_cycle;Max_cycle;Signal;HPM_P1;HPM_P2
2022/04/07 00:00:14;;;;;;;16.70;11.40;;;;;;;8.94;71.90;98385.94;128423;1287;100139;-78
2022/04/07 00:03:37;;;;;;;18.30;12.20;;;;;;;8.91;71.87;98384.85;128182;1288;98020;-80
2022/04/07 00:06:39;;;;;;;16.30;10.30;;;;;;;8.88;72.06;98382.85;128292;1287;99203;-79
2022/04/07 00:09:42;;;;;;;14.40;9.40;;;;;;;8.86;71.90;98375.16;128510;1287;98019;-80
2022/04/07 00:12:45;;;;;;;17.40;10.60;;;;;;;8.86;71.95;98371.45;128644;1287;98778;-80
2022/04/07 00:15:48;;;;;;;17.10;11.30;;;;;;;8.89;71.86;98367.15;128814;1287;98762;-80
2022/04/07 00:18:50;;;;;;;17.60;10.70;;;;;;;8.92;71.90;98362.68;128443;1288;99206;-80
2022/04/07 00:21:57;;;;;;;16.80;10.70;;;;;;;8.96;71.85;98360.50;128776;1287;99214;-80
2022/04/07 00:25:00;;;;;;;15.80;11.20;;;;;;;8.97;71.88;98358.02;128449;1287;183585;-80
2022/04/07 00:28:02;;;;;;;17.60;11.00;;;;;;;8.98;71.70;98350.13;128425;1287;99185;-79
2022/04/07 00:31:05;;;;;;;16.00;10.70;;;;;;;9.00;71.73;98351.09;128453;1287;98998;-83
2022/04/07 00:34:08;;;;;;;15.80;10.10;;;;;;;9.02;71.95;98353.52;128592;1287;98026;-81
2022/04/07 00:37:11;;;;;;;15.50;9.50;;;;;;;9.03;71.81;98345.02;128566;1287;98064;-81
2022/04/07 00:40:14;;;;;;;12.70;8.50;;;;;;;9.06;71.79;98344.61;128501;1287;98153;-76
2022/04/07 00:43:29;;;;;;;13.40;9.10;;;;;;;9.10;72.02;98338.58;128562;1287;98034;-78
2022/04/07 00:46:32;;;;;;;14.70;9.90;;;;;;;9.17;71.84;98333.20;128613;1287;99073;-80
2022/04/07 00:49:35;;;;;;;12.00;8.50;;;;;;;9.24;71.82;98330.07;128717;1287;99085;-79
2022/04/07 00:52:41;;;;;;;14.10;9.80;;;;;;;9.30;71.70;98331.23;128331;1287;98038;-79
2022/04/07 00:55:44;;;;;;;13.60;9.50;;;;;;;9.33;71.48;98326.95;128277;1287;98095;-79
2022/04/07 00:58:47;;;;;;;13.80;9.30;;;;;;;9.34;71.64;98325.60;128277;1287;98534;-79
2022/04/07 01:01:50;;;;;;;12.60;9.00;;;;;;;9.34;71.68;98325.73;128276;1287;97988;-80
2022/04/07 01:04:53;;;;;;;14.00;9.50;;;;;;;9.34;71.87;98323.43;128379;1287;98713;-81
2022/04/07 01:07:56;;;;;;;14.00;9.90;;;;;;;9.34;71.66;98323.97;128241;1288;98011;-81
2022/04/07 01:10:59;;;;;;;13.80;8.80;;;;;;;9.33;71.73;98324.80;128382;1287;99983;-80
2022/04/07 01:14:02;;;;;;;12.50;7.80;;;;;;;9.33;71.74;98322.23;128283;1287;98770;-83
2022/04/07 01:17:05;;;;;;;13.90;8.60;;;;;;;9.35;71.82;98318.33;128451;1287;99092;-84
2022/04/07 01:20:10;;;;;;;14.50;9.30;;;;;;;9.39;71.56;98310.33;128464;1287;98380;-85
2022/04/07 01:23:13;;;;;;;15.90;9.30;;;;;;;9.43;71.58;98306.52;128229;1287;98123;-84
2022/04/07 01:26:16;;;;;;;14.70;9.30;;;;;;;9.42;71.51;98302.89;128497;1287;98807;-81
2022/04/07 01:29:22;;;;;;;14.20;9.40;;;;;;;9.40;71.64;98306.20;128511;1287;98025;-81
2022/04/07 01:32:37;;;;;;;14.70;9.70;;;;;;;9.37;71.40;98304.83;128679;1287;98093;-80
2022/04/07 01:35:40;;;;;;;13.80;9.70;;;;;;;9.33;71.71;98300.41;128383;1287;98114;-78
2022/04/07 01:38:43;;;;;;;14.40;9.60;;;;;;;9.28;71.72;98297.23;128271;1287;98483;-77
2022/04/07 01:41:45;;;;;;;13.50;9.00;;;;;;;9.22;71.54;98292.50;128279;1288;98051;-76
2022/04/07 01:44:53;;;;;;;12.00;7.50;;;;;;;9.16;71.73;98292.38;128271;1287;99257;-80
2022/04/07 01:47:56;;;;;;;12.40;8.30;;;;;;;9.12;71.72;98290.27;128481;1287;98529;-77
2022/04/07 01:50:59;;;;;;;14.50;9.00;;;;;;;9.10;71.72;98291.55;128408;1287;100016;-78
2022/04/07 01:54:02;;;;;;;14.20;9.30;;;;;;;9.10;71.58;98291.95;128312;1287;99179;-77
2022/04/07 01:57:06;;;;;;;14.10;9.00;;;;;;;9.12;71.69;98290.99;128258;1287;98735;-76
2022/04/07 02:00:11;;;;;;;13.60;8.90;;;;;;;9.16;71.68;98293.60;128285;1287;99092;-78
2022/04/07 02:03:17;;;;;;;15.40;9.60;;;;;;;9.19;71.81;98292.20;128431;1287;98759;-77
2022/04/07 02:06:20;;;;;;;16.00;9.60;;;;;;;9.21;71.61;98284.68;128408;1287;98000;-77
2022/04/07 02:09:23;;;;;;;15.50;10.00;;;;;;;9.19;71.57;98280.08;128467;1287;98025;-78
2022/04/07 02:12:27;;;;;;;17.20;10.20;;;;;;;9.16;71.69;98271.74;128444;1287;97999;-76
2022/04/07 02:15:30;;;;;;;15.10;9.80;;;;;;;9.14;71.73;98268.45;128349;1287;98781;-77
2022/04/07 02:18:33;;;;;;;15.70;9.70;;;;;;;9.10;71.84;98265.15;128235;1287;98081;-76
2022/04/07 02:21:36;;;;;;;12.90;8.10;;;;;;;9.07;71.89;98262.00;128274;1287;98019;-79
2022/04/07 02:24:40;;;;;;;13.70;9.50;;;;;;;9.06;71.97;98259.99;128305;1287;98036;-80
2022/04/07 02:27:44;;;;;;;14.20;9.20;;;;;;;9.08;72.00;98262.52;128348;1288;98016;-76
2022/04/07 02:30:48;;;;;;;16.50;10.50;;;;;;;9.11;71.73;98257.02;128217;1287;98031;-76
2022/04/07 02:33:50;;;;;;;15.80;9.90;;;;;;;9.13;71.78;98252.28;128341;1287;99155;-78
2022/04/07 02:36:53;;;;;;;14.80;9.90;;;;;;;9.13;71.69;98253.09;128266;1287;99773;-80
2022/04/07 02:39:56;;;;;;;16.60;10.70;;;;;;;9.08;71.64;98246.18;128269;1287;98012;-75
2022/04/07 02:42:58;;;;;;;16.40;10.70;;;;;;;9.04;71.59;98243.46;128472;1287;98006;-77
2022/04/07 02:46:01;;;;;;;18.20;11.00;;;;;;;9.00;71.62;98237.65;128450;1288;99134;-78
2022/04/07 02:49:04;;;;;;;16.70;10.70;;;;;;;8.94;71.62;98237.77;128506;1287;99192;-78
2022/04/07 02:52:09;;;;;;;14.80;9.60;;;;;;;8.88;71.73;98237.26;128384;1287;97980;-77
2022/04/07 02:55:11;;;;;;;15.00;9.00;;;;;;;8.81;71.61;98238.06;128348;1287;97999;-77
2022/04/07 02:58:14;;;;;;;14.10;8.60;;;;;;;8.74;71.68;98236.11;128424;1287;99183;-77
2022/04/07 03:01:17;;;;;;;14.40;8.90;;;;;;;8.70;71.76;98233.21;128467;1287;98022;-74
2022/04/07 03:04:21;;;;;;;13.80;9.20;;;;;;;8.68;71.68;98228.50;128455;1287;98006;-78
2022/04/07 03:07:24;;;;;;;13.70;9.10;;;;;;;8.65;71.78;98228.27;128456;1287;98005;-77
2022/04/07 03:10:27;;;;;;;14.40;9.80;;;;;;;8.63;71.47;98230.29;128328;1287;99191;-76
2022/04/07 03:13:30;;;;;;;16.00;9.40;;;;;;;8.60;71.65;98230.30;128253;1287;98434;-75
2022/04/07 03:16:32;;;;;;;14.50;9.40;;;;;;;8.57;71.71;98228.23;128248;1287;98007;-77
2022/04/07 03:19:35;;;;;;;15.20;10.10;;;;;;;8.52;71.69;98223.07;128389;1287;98944;-77
2022/04/07 03:22:38;;;;;;;16.00;9.90;;;;;;;8.46;71.59;98223.06;128307;1287;98022;-76
2022/04/07 03:25:41;;;;;;;15.80;10.50;;;;;;;8.41;71.77;98221.48;128212;1287;98009;-76
2022/04/07 03:28:43;;;;;;;13.10;8.90;;;;;;;8.37;71.90;98221.92;128191;1287;99204;-77
2022/04/07 03:31:46;;;;;;;14.00;8.80;;;;;;;8.34;72.24;98224.83;128313;1287;99222;-77
2022/04/07 03:34:49;;;;;;;15.00;9.80;;;;;;;8.33;71.87;98221.46;128352;1287;98016;-78
2022/04/07 03:37:52;;;;;;;15.70;9.80;;;;;;;8.35;72.09;98218.20;128341;1287;98707;-76
2022/04/07 03:40:54;;;;;;;13.40;8.90;;;;;;;8.38;71.92;98217.05;128342;1288;99206;-76
2022/04/07 03:43:57;;;;;;;22.60;14.70;;;;;;;8.40;71.94;98214.74;128316;1288;98131;-77
2022/04/07 03:47:00;;;;;;;37.70;19.90;;;;;;;8.42;71.78;98217.52;128257;1288;98627;-78
2022/04/07 03:50:04;;;;;;;27.30;15.10;;;;;;;8.41;71.80;98218.11;128241;1288;98943;-76
2022/04/07 03:53:08;;;;;;;53.60;25.70;;;;;;;8.40;71.82;98217.89;128095;1288;98860;-74
2022/04/07 03:56:10;;;;;;;29.20;15.20;;;;;;;8.37;71.81;98217.34;128342;1287;98785;-77
2022/04/07 03:59:13;;;;;;;44.60;22.20;;;;;;;8.34;71.69;98220.09;128207;1288;98010;-77
2022/04/07 04:02:16;;;;;;;21.30;13.60;;;;;;;8.31;71.76;98221.16;128159;1288;99238;-75
2022/04/07 04:05:19;;;;;;;16.70;9.70;;;;;;;8.30;71.91;98219.64;128074;1288;98878;-71
2022/04/07 04:08:22;;;;;;;14.90;9.20;;;;;;;8.32;71.98;98220.80;128027;1287;98816;-71
2022/04/07 04:11:24;;;;;;;13.80;9.80;;;;;;;8.35;71.87;98224.51;127975;1287;98105;-71
2022/04/07 04:14:27;;;;;;;14.40;9.00;;;;;;;8.38;71.72;98222.23;127972;1287;98016;-71
2022/04/07 04:17:30;;;;;;;13.70;9.40;;;;;;;8.40;71.99;98221.32;128253;1288;99184;-71
2022/04/07 04:20:33;;;;;;;11.80;8.50;;;;;;;8.41;71.72;98219.02;127792;1287;99214;-71
2022/04/07 04:23:38;;;;;;;13.60;8.80;;;;;;;8.41;71.67;98221.85;128001;1288;99184;-71
2022/04/07 04:26:41;;;;;;;23.70;15.60;;;;;;;8.40;71.84;98226.08;127998;1287;98757;-69
2022/04/07 04:29:44;;;;;;;14.50;9.60;;;;;;;8.40;71.79;98228.16;127988;1287;98148;-69
2022/04/07 04:32:46;;;;;;;11.60;7.90;;;;;;;8.40;71.91;98225.64;127960;1287;98144;-69
2022/04/07 04:35:49;;;;;;;12.40;7.60;;;;;;;8.44;72.00;98221.28;127964;1287;98107;-70
2022/04/07 04:38:52;;;;;;;30.60;14.50;;;;;;;8.54;72.01;98219.95;128020;1287;98014;-70
2022/04/07 04:41:55;;;;;;;13.40;8.40;;;;;;;8.67;72.01;98220.23;128015;1287;98778;-69
2022/04/07 04:44:58;;;;;;;12.50;7.50;;;;;;;8.81;71.79;98223.63;127988;1287;99171;-69
2022/04/07 04:48:02;;;;;;;10.00;7.30;;;;;;;8.92;71.87;98224.20;128035;1287;98476;-70
2022/04/07 04:51:04;;;;;;;13.10;8.40;;;;;;;9.00;71.55;98230.45;127938;1287;99255;-69
2022/04/07 04:54:07;;;;;;;17.50;11.50;;;;;;;9.09;71.69;98224.08;127913;1287;98810;-69
2022/04/07 04:57:10;;;;;;;12.30;8.70;;;;;;;9.17;71.62;98217.26;127933;1288;98119;-69
2022/04/07 05:00:15;;;;;;;17.40;11.10;;;;;;;9.23;71.55;98219.14;128109;1287;98125;-69
2022/04/07 05:03:18;;;;;;;29.70;18.50;;;;;;;9.29;71.47;98217.27;128320;1287;98001;-69
2022/04/07 05:06:20;;;;;;;73.80;39.80;;;;;;;9.35;71.45;98212.48;128242;1287;99186;-70
2022/04/07 05:09:23;;;;;;;24.60;14.60;;;;;;;9.43;71.33;98214.77;128083;1287;98134;-70
2022/04/07 05:12:27;;;;;;;30.20;18.10;;;;;;;9.53;71.41;98216.07;128209;1287;98001;-72
2022/04/07 05:15:29;;;;;;;16.90;11.00;;;;;;;9.62;71.46;98209.95;128472;1287;98007;-71
2022/04/07 05:18:32;;;;;;;12.50;8.80;;;;;;;9.74;71.40;98217.19;128251;1287;99230;-71
2022/04/07 05:21:35;;;;;;;24.00;14.80;;;;;;;9.90;71.16;98214.17;128210;1287;97997;-71
2022/04/07 05:24:38;;;;;;;22.80;12.80;;;;;;;10.05;70.97;98215.17;128239;1287;99181;-71
2022/04/07 05:27:42;;;;;;;17.50;10.80;;;;;;;10.18;70.86;98212.10;128144;1287;98008;-71
2022/04/07 05:30:45;;;;;;;12.30;7.80;;;;;;;10.27;70.92;98209.38;128369;1287;98757;-71
2022/04/07 05:33:48;;;;;;;23.10;10.50;;;;;;;10.31;70.58;98206.54;128332;1287;98099;-71
2022/04/07 05:36:50;;;;;;;15.20;9.60;;;;;;;10.36;70.69;98210.81;128203;1287;98768;-71
2022/04/07 05:39:53;;;;;;;42.50;25.80;;;;;;;10.43;70.62;98209.04;128176;1287;99078;-71
2022/04/07 05:42:56;;;;;;;16.20;9.90;;;;;;;10.51;70.29;98213.81;128257;1287;98024;-71
2022/04/07 05:46:01;;;;;;;13.80;9.70;;;;;;;10.62;70.37;98215.27;128246;1287;98112;-71
2022/04/07 05:49:03;;;;;;;20.80;13.30;;;;;;;10.74;70.37;98212.12;128318;1287;99938;-72
2022/04/07 05:52:07;;;;;;;35.40;22.90;;;;;;;10.86;70.29;98207.64;128300;1287;99193;-71
2022/04/07 05:55:10;;;;;;;20.50;13.20;;;;;;;10.97;70.17;98205.42;128342;1287;98044;-71
2022/04/07 05:58:15;;;;;;;27.00;17.90;;;;;;;11.07;69.90;98203.52;128139;1287;119469;-71
2022/04/07 06:01:18;;;;;;;90.60;52.60;;;;;;;11.13;70.02;98200.98;128296;1287;98036;-71
2022/04/07 06:04:21;;;;;;;21.90;14.90;;;;;;;11.19;69.71;98197.44;128413;1287;98786;-71
2022/04/07 06:07:24;;;;;;;15.90;10.70;;;;;;;11.24;69.78;98199.77;128062;1287;98016;-71
2022/04/07 06:10:27;;;;;;;33.20;17.70;;;;;;;11.28;69.92;98198.70;128323;1287;97988;-71
2022/04/07 06:13:30;;;;;;;26.10;16.90;;;;;;;11.35;69.70;98199.34;128366;1287;99180;-71
2022/04/07 06:16:32;;;;;;;15.10;8.90;;;;;;;11.44;69.72;98194.44;128214;1287;98023;-71
2022/04/07 06:19:35;;;;;;;10.90;7.50;;;;;;;11.52;69.30;98198.55;128006;1287;98132;-71
2022/04/07 06:22:38;;;;;;;12.80;8.40;;;;;;;11.62;69.41;98199.19;128295;1287;98125;-71
2022/04/07 06:25:41;;;;;;;13.00;8.80;;;;;;;11.72;69.21;98195.48;128125;1287;99145;-71
2022/04/07 06:28:44;;;;;;;14.70;10.20;;;;;;;11.80;68.85;98194.15;127924;1287;99141;-70
2022/04/07 06:31:47;;;;;;;15.40;10.20;;;;;;;11.85;68.78;98193.52;127995;1287;98414;-70
2022/04/07 06:34:49;;;;;;;13.90;9.70;;;;;;;11.85;68.88;98190.30;127917;1287;99205;-70
2022/04/07 06:37:55;;;;;;;16.10;10.30;;;;;;;11.84;68.76;98188.68;127946;1288;98784;-70
2022/04/07 06:40:59;;;;;;;17.90;12.30;;;;;;;11.85;68.83;98187.32;127948;1287;118712;-70
2022/04/07 06:44:01;;;;;;;14.90;10.70;;;;;;;11.88;68.46;98188.98;128071;1287;112357;-70
2022/04/07 06:47:05;;;;;;;16.70;10.80;;;;;;;11.93;68.94;98188.95;127970;1288;99172;-71
2022/04/07 06:50:13;;;;;;;23.90;17.10;;;;;;;12.04;68.73;98182.52;128290;1287;112248;-70
2022/04/07 06:53:16;;;;;;;25.00;16.70;;;;;;;12.11;68.51;98181.09;128113;1287;112279;-70
2022/04/07 06:56:19;;;;;;;25.60;18.70;;;;;;;12.20;68.10;98184.58;127910;1287;112275;-70
2022/04/07 06:59:22;;;;;;;83.90;37.80;;;;;;;12.26;68.23;98179.03;127878;1288;97986;-70
2022/04/07 07:02:24;;;;;;;45.00;24.00;;;;;;;12.35;68.51;98178.94;128071;1288;99174;-71
2022/04/07 07:05:29;;;;;;;17.60;12.20;;;;;;;12.48;68.21;98179.48;127916;1287;98019;-70
2022/04/07 07:08:31;;;;;;;16.20;12.00;;;;;;;12.58;68.11;98172.80;127906;1287;112206;-70
2022/04/07 07:11:34;;;;;;;14.50;10.40;;;;;;;12.70;68.05;98172.19;127870;1287;99113;-70
2022/04/07 07:14:36;;;;;;;16.60;11.40;;;;;;;12.80;67.80;98170.25;127859;1287;98004;-70
2022/04/07 07:17:40;;;;;;;15.30;10.30;;;;;;;12.88;67.78;98161.84;128036;1287;98838;-70
2022/04/07 07:20:43;;;;;;;13.60;9.80;;;;;;;12.96;67.73;98164.98;128039;1288;98036;-70
2022/04/07 07:23:46;;;;;;;13.10;9.50;;;;;;;13.01;67.43;98158.49;128058;1287;98778;-70
2022/04/07 07:26:48;;;;;;;13.00;8.80;;;;;;;13.07;67.60;98161.08;127949;1287;98765;-70
2022/04/07 07:29:52;;;;;;;13.00;9.40;;;;;;;13.13;67.09;98164.31;127887;1287;99188;-70
2022/04/07 07:32:54;;;;;;;13.90;8.90;;;;;;;13.15;66.94;98157.21;128028;1287;98836;-70
2022/04/07 07:35:57;;;;;;;12.80;8.70;;;;;;;13.15;66.82;98154.11;128013;1287;99222;-70
2022/04/07 07:39:00;;;;;;;11.90;8.90;;;;;;;13.17;66.95;98153.40;128087;1287;98141;-70
2022/04/07 07:42:03;;;;;;;12.40;9.20;;;;;;;13.27;66.83;98151.09;128099;1287;98893;-72
2022/04/07 07:45:08;;;;;;;11.00;8.20;;;;;;;13.36;66.78;98151.45;128022;1287;98461;-71
2022/04/07 07:48:12;;;;;;;11.30;9.40;;;;;;;13.52;66.63;98150.09;128064;1287;112447;-69
2022/04/07 07:51:16;;;;;;;10.70;8.80;;;;;;;13.67;66.45;98154.70;128069;1287;118614;-70
2022/04/07 07:54:18;;;;;;;11.40;8.20;;;;;;;13.80;66.02;98151.98;127893;1287;112439;-70
2022/04/07 07:57:22;;;;;;;10.20;7.80;;;;;;;13.97;66.12;98152.30;127998;1287;98748;-70
2022/04/07 08:00:24;;;;;;;9.20;7.20;;;;;;;14.14;65.70;98148.85;128001;1287;99332;-70
2022/04/07 08:03:27;;;;;;;8.90;6.90;;;;;;;14.20;65.32;98146.73;128103;1287;98097;-70
2022/04/07 08:06:30;;;;;;;236.60;109.30;;;;;;;14.23;65.20;98146.17;127948;1287;98101;-71
2022/04/07 08:09:32;;;;;;;32.60;18.30;;;;;;;14.18;65.08;98136.83;128039;1287;99287;-70
2022/04/07 08:12:36;;;;;;;14.70;9.60;;;;;;;14.12;64.89;98132.52;127949;1287;98072;-70
2022/04/07 08:15:38;;;;;;;10.80;7.50;;;;;;;14.09;65.04;98124.09;128047;1287;98128;-70
2022/04/07 08:18:41;;;;;;;9.60;6.70;;;;;;;14.10;65.13;98126.95;128029;1287;98810;-70
2022/04/07 08:21:44;;;;;;;7.70;6.20;;;;;;;14.11;64.51;98129.36;128005;1287;99167;-70
2022/04/07 08:24:47;;;;;;;7.90;5.60;;;;;;;14.13;64.18;98128.44;127953;1287;99192;-71
2022/04/07 08:27:50;;;;;;;8.00;5.80;;;;;;;14.19;64.08;98123.65;128073;1287;99186;-70
2022/04/07 08:30:53;;;;;;;7.90;5.80;;;;;;;14.26;64.08;98123.63;128103;1287;98008;-70
2022/04/07 08:33:56;;;;;;;7.30;5.30;;;;;;;14.29;63.37;98125.56;128201;1287;98039;-71
2022/04/07 08:36:58;;;;;;;8.20;5.70;;;;;;;14.30;63.06;98123.60;127928;1287;98013;-71
2022/04/07 08:40:05;;;;;;;7.90;5.50;;;;;;;14.29;63.27;98116.08;127965;1287;98507;-71
2022/04/07 08:43:09;;;;;;;7.20;5.40;;;;;;;14.28;62.71;98111.80;128109;1287;112334;-70
2022/04/07 08:46:13;;;;;;;8.40;5.20;;;;;;;14.28;62.99;98111.59;128158;1287;112336;-70
2022/04/07 08:49:19;;;;;;;7.60;5.80;;;;;;;14.34;62.89;98111.20;128235;1287;112333;-70
2022/04/07 08:52:22;;;;;;;6.80;5.10;;;;;;;14.43;62.71;98108.54;128060;1287;118559;-71
2022/04/07 08:55:25;;;;;;;7.10;5.60;;;;;;;14.56;62.25;98103.85;128062;1287;112374;-71
2022/04/07 08:58:28;;;;;;;6.90;5.00;;;;;;;14.65;61.82;98096.76;128007;1287;98087;-71
2022/04/07 09:01:30;;;;;;;6.30;4.40;;;;;;;14.72;61.76;98096.55;127737;1289;98786;-71
2022/04/07 09:04:38;;;;;;;6.20;4.80;;;;;;;14.81;61.50;98100.77;128115;1287;99188;-71
2022/04/07 09:07:47;;;;;;;7.30;4.70;;;;;;;14.86;61.03;98090.73;128147;1287;112347;-70
2022/04/07 09:10:55;;;;;;;6.30;4.60;;;;;;;14.90;60.91;98089.27;128226;1287;111751;-71
2022/04/07 09:13:57;;;;;;;5.30;4.10;;;;;;;14.90;60.15;98079.00;128190;1287;112328;-70
2022/04/07 09:17:00;;;;;;;4.90;3.50;;;;;;;14.85;60.49;98072.93;128085;1287;98063;-70
2022/04/07 09:20:09;;;;;;;6.30;4.30;;;;;;;14.79;59.96;98070.77;128136;1287;98602;-70
2022/04/07 09:23:13;;;;;;;5.30;4.30;;;;;;;14.76;60.48;98064.16;128065;1287;118497;-70
2022/04/07 09:26:16;;;;;;;6.30;4.40;;;;;;;14.78;60.54;98063.16;127959;1287;98111;-71
2022/04/07 09:29:19;;;;;;;5.00;4.10;;;;;;;14.83;60.45;98058.92;128346;1287;112304;-71
2022/04/07 09:32:24;;;;;;;4.80;4.20;;;;;;;14.90;60.25;98052.77;128350;1287;98089;-71
2022/04/07 09:35:26;;;;;;;4.60;3.80;;;;;;;15.01;60.49;98051.20;128296;1286;112516;-71
2022/04/07 09:38:31;;;;;;;5.00;3.90;;;;;;;15.04;59.57;98045.56;128395;1287;100152;-71
2022/04/07 09:41:35;;;;;;;5.10;4.10;;;;;;;15.03;60.06;98047.44;128291;1287;112100;-71
2022/04/07 09:44:38;;;;;;;7.20;4.30;;;;;;;15.10;60.06;98043.77;128322;1287;112454;-71
2022/04/07 09:47:43;;;;;;;5.30;3.90;;;;;;;15.14;59.76;98035.41;128287;1287;111314;-71
2022/04/07 09:51:03;;;;;;;4.50;3.70;;;;;;;15.25;59.60;98029.36;128330;1287;112421;-71
2022/04/07 09:54:09;;;;;;;4.70;3.60;;;;;;;15.46;59.14;98020.24;128300;1287;112214;-71
2022/04/07 09:57:15;;;;;;;4.70;3.40;;;;;;;15.60;58.62;98012.34;128363;1287;112225;-71
2022/04/07 10:00:20;;;;;;;3.90;3.10;;;;;;;15.75;58.57;98002.91;128299;1287;112487;-71
2022/04/07 10:03:23;;;;;;;3.80;3.00;;;;;;;15.97;58.82;97998.98;128340;1287;112390;-71
2022/04/07 10:06:26;;;;;;;3.60;2.90;;;;;;;16.08;58.13;97988.03;128393;1287;118497;-71
2022/04/07 10:09:30;;;;;;;3.60;2.80;;;;;;;16.13;58.19;97984.93;128296;1287;112395;-72
2022/04/07 10:12:34;;;;;;;4.00;2.50;;;;;;;16.11;57.17;97976.56;128393;1287;112415;-72
2022/04/07 10:15:37;;;;;;;3.20;2.50;;;;;;;16.08;57.62;97974.59;128079;1287;117842;-71
2022/04/07 10:18:45;;;;;;;4.10;2.60;;;;;;;16.08;57.53;97975.83;128165;1287;112212;-71
2022/04/07 10:22:01;;;;;;;3.60;2.70;;;;;;;16.08;57.42;97971.77;128328;1287;112217;-71
2022/04/07 10:25:06;;;;;;;4.40;2.70;;;;;;;16.15;57.57;97964.25;128345;1287;112372;-71
2022/04/07 10:28:11;;;;;;;3.20;2.40;;;;;;;16.32;57.29;97958.85;128537;1287;112382;-71
2022/04/07 10:31:15;;;;;;;3.60;2.20;;;;;;;16.44;57.14;97954.52;128360;1287;112569;-71
2022/04/07 10:34:32;;;;;;;2.80;2.30;;;;;;;16.58;56.12;97961.16;128285;1287;112328;-71
2022/04/07 10:37:47;;;;;;;2.90;2.10;;;;;;;16.68;55.55;97947.51;128006;1287;112334;-71
2022/04/07 10:40:50;;;;;;;3.80;2.30;;;;;;;16.81;55.86;97939.40;128075;1287;112062;-70
2022/04/07 10:44:08;;;;;;;4.40;2.50;;;;;;;16.92;55.84;97933.94;128039;1287;112411;-71
2022/04/07 10:47:11;;;;;;;3.10;2.70;;;;;;;17.02;56.00;97923.56;128338;1287;118437;-71
2022/04/07 10:50:17;;;;;;;3.60;2.60;;;;;;;17.13;55.68;97920.17;128050;1287;98442;-71
2022/04/07 10:53:22;;;;;;;4.40;2.60;;;;;;;17.25;55.53;97910.31;128419;1287;113166;-71
2022/04/07 10:56:31;;;;;;;3.50;2.50;;;;;;;17.40;55.34;97906.54;128274;1287;112572;-71
2022/04/07 10:59:35;;;;;;;3.10;2.70;;;;;;;17.46;54.69;97904.16;127937;1287;118508;-71
2022/04/07 11:02:38;;;;;;;4.60;2.90;;;;;;;17.48;54.87;97901.75;128288;1287;112448;-71
2022/04/07 11:05:53;;;;;;;3.80;3.20;;;;;;;17.46;53.89;97899.48;128111;1287;98013;-71
2022/04/07 11:09:13;;;;;;;2.90;2.40;;;;;;;17.47;54.62;97893.06;128396;1287;112357;-71
2022/04/07 11:12:23;;;;;;;3.20;2.60;;;;;;;17.52;54.07;97895.10;128267;1287;112405;-71
2022/04/07 11:15:49;;;;;;;3.60;3.00;;;;;;;17.47;54.05;97901.85;128364;1287;113080;-71
2022/04/07 11:19:16;;;;;;;4.40;2.60;;;;;;;17.41;53.36;97903.96;128234;1287;118370;-71
2022/04/07 11:22:22;;;;;;;3.20;2.50;;;;;;;17.43;53.64;97898.75;127993;1287;112421;-72
2022/04/07 11:25:29;;;;;;;4.00;2.60;;;;;;;17.53;53.51;97891.02;128207;1287;112363;-71
2022/04/07 11:28:34;;;;;;;3.70;2.70;;;;;;;17.59;52.90;97891.35;128308;1287;111101;-71
2022/04/07 11:31:41;;;;;;;2.60;2.20;;;;;;;17.67;53.18;97893.29;128276;1287;112645;-71
2022/04/07 11:34:53;;;;;;;3.40;2.30;;;;;;;17.75;53.44;97889.73;128230;1287;112169;-71
2022/04/07 11:37:57;;;;;;;3.20;2.70;;;;;;;17.80;53.19;97891.78;128161;1287;112332;-71
2022/04/07 11:41:00;;;;;;;3.50;2.30;;;;;;;17.75;52.92;97886.19;128161;1287;111994;-71
2022/04/07 11:44:12;;;;;;;3.90;2.20;;;;;;;17.71;52.67;97881.67;128298;1287;118423;-70
2022/04/07 11:47:28;;;;;;;2.90;2.50;;;;;;;17.69;52.88;97870.17;128190;1287;112218;-70
2022/04/07 11:50:31;;;;;;;3.20;2.30;;;;;;;17.78;52.59;97862.52;128462;1287;112717;-70
2022/04/07 11:53:34;;;;;;;2.60;2.00;;;;;;;17.81;51.96;97855.95;128213;1287;98634;-71
2022/04/07 11:56:39;;;;;;;2.50;2.20;;;;;;;17.74;52.23;97853.42;128048;1287;98680;-72
2022/04/07 11:59:43;;;;;;;2.80;2.10;;;;;;;17.73;52.47;97849.11;127971;1287;112330;-71
2022/04/07 12:02:59;;;;;;;4.10;2.00;;;;;;;17.84;52.65;97840.67;128262;1287;112435;-70
2022/04/07 12:06:02;;;;;;;2.30;1.80;;;;;;;17.98;52.43;97829.41;128188;1287;112372;-71
2022/04/07 12:09:05;;;;;;;3.00;2.10;;;;;;;18.03;52.15;97821.88;128274;1287;98023;-71
2022/04/07 12:12:12;;;;;;;2.10;1.90;;;;;;;17.95;51.96;97818.33;128459;1286;112809;-71
2022/04/07 12:15:16;;;;;;;2.50;1.80;;;;;;;17.87;51.05;97812.98;128277;1287;112394;-71
2022/04/07 12:18:26;;;;;;;2.50;1.70;;;;;;;17.73;51.61;97806.66;128444;1287;112102;-71
2022/04/07 12:21:30;;;;;;;2.20;1.60;;;;;;;17.66;51.65;97799.16;128264;1287;113022;-71
2022/04/07 12:24:33;;;;;;;2.80;1.60;;;;;;;17.75;51.96;97796.58;128177;1287;195662;-71
2022/04/07 12:27:36;;;;;;;2.20;1.50;;;;;;;17.79;50.99;97787.77;128091;1287;98211;-70
2022/04/07 12:30:47;;;;;;;1.80;1.30;;;;;;;17.74;51.10;97782.23;128467;1287;98791;-71
2022/04/07 12:33:50;;;;;;;3.20;1.40;;;;;;;17.84;51.40;97782.20;128521;1287;112383;-71
2022/04/07 12:36:53;;;;;;;2.10;1.40;;;;;;;17.87;50.80;97779.64;128278;1287;112337;-71
2022/04/07 12:39:56;;;;;;;1.60;1.40;;;;;;;17.82;50.68;97774.89;128240;1287;98566;-71
2022/04/07 12:43:01;;;;;;;1.50;1.00;;;;;;;17.72;50.31;97773.42;128339;1287;98008;-71
2022/04/07 12:46:07;;;;;;;1.40;1.00;;;;;;;17.67;50.50;97760.55;127939;1288;111222;-72
2022/04/07 12:49:10;;;;;;;1.40;1.10;;;;;;;17.74;50.34;97752.45;128071;1287;112561;-71
2022/04/07 12:52:14;;;;;;;1.30;1.00;;;;;;;17.75;50.44;97757.10;128263;1287;99162;-72
2022/04/07 12:55:17;;;;;;;1.80;1.10;;;;;;;17.68;49.57;97750.58;128232;1287;112319;-72
2022/04/07 12:58:28;;;;;;;1.70;0.90;;;;;;;17.63;49.77;97740.36;128241;1287;99238;-71
2022/04/07 13:01:31;;;;;;;1.40;0.90;;;;;;;17.64;49.69;97740.36;128160;1287;111314;-72
2022/04/07 13:04:48;;;;;;;1.90;1.50;;;;;;;17.59;49.03;97731.34;127905;1288;112150;-72
2022/04/07 13:07:51;;;;;;;2.00;1.20;;;;;;;17.62;49.18;97728.55;128160;1288;118505;-72
2022/04/07 13:10:53;;;;;;;1.20;1.00;;;;;;;17.68;49.07;97725.71;128189;1288;112519;-72
2022/04/07 13:13:56;;;;;;;2.30;1.20;;;;;;;17.71;49.41;97723.20;128187;1288;99315;-72
2022/04/07 13:16:59;;;;;;;1.60;1.10;;;;;;;17.69;49.04;97713.95;128223;1288;98092;-72
2022/04/07 13:20:02;;;;;;;2.40;1.10;;;;;;;17.70;48.75;97701.71;128085;1288;99213;-72
2022/04/07 13:23:05;;;;;;;2.20;1.20;;;;;;;17.73;48.62;97699.48;128062;1288;99202;-72
2022/04/07 13:26:08;;;;;;;2.10;1.10;;;;;;;17.66;48.67;97699.92;128072;1288;98097;-71
2022/04/07 13:29:11;;;;;;;1.60;1.20;;;;;;;17.54;47.89;97692.31;128155;1288;98460;-72
2022/04/07 13:32:14;;;;;;;2.00;1.30;;;;;;;17.48;48.73;97683.16;128080;1288;98874;-71
2022/04/07 13:35:16;;;;;;;2.10;1.40;;;;;;;17.53;48.64;97672.56;128068;1288;98146;-71
2022/04/07 13:38:19;;;;;;;1.90;1.30;;;;;;;17.51;48.46;97656.16;128204;1288;98092;-72
2022/04/07 13:41:23;;;;;;;2.10;1.10;;;;;;;17.49;48.40;97654.48;128290;1287;98041;-72
2022/04/07 13:44:26;;;;;;;3.00;1.20;;;;;;;17.48;48.17;97648.66;128424;1287;98025;-72
2022/04/07 13:47:29;;;;;;;2.40;1.30;;;;;;;17.55;48.01;97649.55;128343;1287;99234;-73
2022/04/07 13:50:31;;;;;;;2.10;1.10;;;;;;;17.56;47.90;97638.51;128341;1287;98029;-73
2022/04/07 13:53:34;;;;;;;2.20;1.20;;;;;;;17.52;47.81;97634.55;128404;1287;98708;-72
2022/04/07 13:56:37;;;;;;;2.10;1.20;;;;;;;17.42;47.66;97630.95;128521;1287;98006;-72
2022/04/07 13:59:41;;;;;;;2.00;1.00;;;;;;;17.35;47.64;97625.08;128294;1287;97988;-70
2022/04/07 14:02:44;;;;;;;1.60;1.00;;;;;;;17.31;47.75;97617.90;128549;1287;99210;-74
2022/04/07 14:05:47;;;;;;;2.10;1.10;;;;;;;17.30;47.93;97608.23;128437;1287;98055;-74
2022/04/07 14:08:50;;;;;;;1.60;1.00;;;;;;;17.30;47.91;97601.55;128534;1287;99261;-74